Time;durP1;ratioP1;P1;durP2;ratioP2;P2;SDS_P1;SDS_P2;PMS_P1;PMS_P2;Temp;Humidity;BMP_temperature;BMP_pressure;BME280_temperature;BME280_humidity;BME280_pressure;Samples;Min_cycle;Max_cycle;Signal;HPM_P1;HPM_P2
2021/03/24 00:02:11;;;;;;;21.50;8.40;;;1.60;99.90;;;;;;5053629;28;20028;-77
2021/03/24 00:04:36;;;;;;;18.53;8.63;;;1.60;99.90;;;;;;5054600;28;20028;-77
2021/03/24 00:07:03;;;;;;;18.27;6.55;;;1.60;99.90;;;;;;5053575;28;20017;-76
2021/03/24 00:09:28;;;;;;;17.52;7.05;;;1.50;99.90;;;;;;5054758;28;20435;-78
2021/03/24 00:11:54;;;;;;;19.25;7.70;;;1.50;99.90;;;;;;5055911;28;20021;-79
2021/03/24 00:14:19;;;;;;;14.20;7.13;;;1.50;99.90;;;;;;5056382;28;20036;-78
2021/03/24 00:16:45;;;;;;;15.70;6.70;;;1.50;99.90;;;;;;5055148;28;20572;-76
2021/03/24 00:19:10;;;;;;;11.38;6.63;;;1.50;99.90;;;;;;5054178;28;20046;-76
2021/03/24 00:21:36;;;;;;;12.75;7.88;;;1.50;99.90;;;;;;5054718;28;20400;-77
2021/03/24 00:24:02;;;;;;;16.23;7.68;;;1.50;99.90;;;;;;5053594;28;20036;-78
2021/03/24 00:26:28;;;;;;;12.70;6.78;;;1.40;99.90;;;;;;5054910;28;20021;-77
2021/03/24 00:28:53;;;;;;;15.73;7.55;;;1.40;99.90;;;;;;5055943;28;20025;-77
2021/03/24 00:31:20;;;;;;;18.20;7.07;;;1.40;99.90;;;;;;5055730;28;20078;-77
2021/03/24 00:33:46;;;;;;;;;;;1.30;99.90;;;;;;5054936;28;20082;-76
2021/03/24 00:36:11;;;;;;;16.07;7.30;;;1.30;99.90;;;;;;5054393;28;19909;-77
2021/03/24 00:38:37;;;;;;;;;;;1.30;99.90;;;;;;5053996;28;20025;-76
2021/03/24 00:41:02;;;;;;;15.23;7.68;;;1.30;99.90;;;;;;5054349;28;19920;-77
2021/03/24 00:43:28;;;;;;;17.95;6.75;;;1.30;99.90;;;;;;5052587;28;20029;-75
2021/03/24 00:45:54;;;;;;;13.90;6.80;;;1.30;99.90;;;;;;5052361;28;20108;-76
2021/03/24 00:48:31;;;;;;;11.52;5.88;;;1.30;99.90;;;;;;5052177;28;20021;-76
2021/03/24 00:50:58;;;;;;;12.55;6.75;;;1.30;99.90;;;;;;5053509;28;20029;-76
2021/03/24 00:53:24;;;;;;;13.05;6.07;;;1.30;99.90;;;;;;5053323;28;20029;-77
2021/03/24 00:55:50;;;;;;;13.68;5.82;;;1.30;99.90;;;;;;5051916;28;20044;-77
2021/03/24 00:58:17;;;;;;;15.85;7.30;;;1.40;99.90;;;;;;5052297;28;20025;-76
2021/03/24 01:00:43;;;;;;;13.80;6.68;;;1.30;99.90;;;;;;5051896;28;20121;-77
2021/03/24 01:03:10;;;;;;;19.50;7.32;;;1.30;99.90;;;;;;5052561;28;20024;-77
2021/03/24 01:05:37;;;;;;;13.35;6.78;;;1.30;99.90;;;;;;5051858;28;20400;-76
2021/03/24 01:08:12;;;;;;;14.95;6.68;;;1.30;99.90;;;;;;5053766;28;20028;-77
2021/03/24 01:10:39;;;;;;;17.20;6.45;;;1.30;99.90;;;;;;5054609;28;20082;-77
2021/03/24 01:13:06;;;;;;;13.30;5.60;;;1.20;99.90;;;;;;5054717;28;20029;-77
2021/03/24 01:15:32;;;;;;;;;;;1.30;99.90;;;;;;5054945;28;20035;-77
2021/03/24 01:17:57;;;;;;;;;;;1.30;99.90;;;;;;5054105;28;19991;-78
2021/03/24 01:20:31;;;;;;;;;;;1.30;99.90;;;;;;5053762;28;19920;-77
2021/03/24 01:22:57;;;;;;;;;;;1.30;99.90;;;;;;5054353;28;19908;-77
2021/03/24 01:25:22;;;;;;;;;;;1.30;99.90;;;;;;5053998;28;20470;-77
2021/03/24 01:27:48;;;;;;;;;;;1.20;99.90;;;;;;5055161;28;20400;-77
2021/03/24 01:30:14;;;;;;;;;;;1.30;99.90;;;;;;5054847;28;19909;-78
2021/03/24 01:32:40;;;;;;;;;;;1.20;99.90;;;;;;5054106;28;19952;-78
2021/03/24 01:35:07;;;;;;;;;;;1.20;99.90;;;;;;5054364;28;19913;-77
2021/03/24 01:37:32;;;;;;;;;;;1.20;99.90;;;;;;5055177;28;20004;-76
2021/03/24 01:39:57;;;;;;;;;;;1.20;99.90;;;;;;5055006;28;20043;-77
2021/03/24 01:42:23;;;;;;;;;;;1.20;99.90;;;;;;5054347;28;19909;-77
2021/03/24 01:44:59;;;;;;;;;;;1.20;99.90;;;;;;5053023;28;19909;-76
2021/03/24 01:47:24;;;;;;;;;;;1.20;99.90;;;;;;5052172;28;19966;-77
2021/03/24 01:49:50;;;;;;;;;;;1.20;99.90;;;;;;5052570;28;19960;-79
2021/03/24 01:52:15;;;;;;;;;;;1.20;99.90;;;;;;5054668;28;19923;-77
2021/03/24 01:54:42;;;;;;;;;;;1.10;99.90;;;;;;5053051;28;20066;-77
2021/03/24 01:57:10;;;;;;;;;;;1.10;99.90;;;;;;5053903;28;19936;-77
2021/03/24 01:59:36;;;;;;;;;;;1.10;99.90;;;;;;5053816;28;20334;-77
2021/03/24 02:02:05;;;;;;;;;;;1.10;99.90;;;;;;5054519;28;20007;-77
2021/03/24 02:04:31;;;;;;;;;;;1.10;99.90;;;;;;5053800;28;19916;-77
2021/03/24 02:06:59;;;;;;;;;;;1.10;99.90;;;;;;5054562;28;19909;-78
2021/03/24 02:09:39;;;;;;;;;;;1.10;99.90;;;;;;5052344;28;20388;-78
2021/03/24 02:12:08;;;;;;;;;;;1.00;99.90;;;;;;5052912;28;19912;-76
2021/03/24 02:14:38;;;;;;;;;;;1.00;99.90;;;;;;5052744;28;19948;-77
2021/03/24 02:17:04;;;;;;;;;;;1.00;99.90;;;;;;5051791;28;19909;-76
2021/03/24 02:19:35;;;;;;;;;;;1.00;99.90;;;;;;5052873;28;20003;-77
2021/03/24 02:22:01;;;;;;;;;;;0.90;99.90;;;;;;5053568;28;19913;-76
2021/03/24 02:24:33;;;;;;;;;;;0.90;99.90;;;;;;5051171;28;19962;-77
2021/03/24 02:27:09;;;;;;;;;;;0.90;99.90;;;;;;5051300;28;19909;-76
2021/03/24 02:29:37;;;;;;;;;;;0.90;99.90;;;;;;5051738;28;19913;-76
2021/03/24 02:32:03;;;;;;;;;;;0.80;99.90;;;;;;5053084;28;20004;-76
2021/03/24 02:34:29;;;;;;;;;;;0.80;99.90;;;;;;5051408;28;19923;-76
2021/03/24 02:36:56;;;;;;;;;;;0.80;99.90;;;;;;5053324;28;20003;-76
2021/03/24 02:39:22;;;;;;;;;;;0.80;99.90;;;;;;5052315;28;19909;-78
2021/03/24 02:41:49;;;;;;;;;;;0.90;99.90;;;;;;5052546;28;20008;-76
2021/03/24 02:44:14;;;;;;;;;;;0.90;99.90;;;;;;5052792;28;19909;-77
2021/03/24 02:46:41;;;;;;;;;;;0.80;99.90;;;;;;5053567;28;19916;-77
2021/03/24 02:49:07;;;;;;;;;;;0.80;99.90;;;;;;5057597;28;20047;-76
2021/03/24 02:51:33;;;;;;;;;;;0.70;99.90;;;;;;5057211;28;20015;-77
2021/03/24 02:53:58;;;;;;;;;;;0.70;99.90;;;;;;5058887;28;20519;-77
2021/03/24 02:56:24;;;;;;;;;;;0.70;99.90;;;;;;5060291;28;19963;-77
2021/03/24 02:58:50;;;;;;;;;;;0.70;99.90;;;;;;5058098;28;19920;-78
2021/03/24 03:01:23;;;;;;;;;;;0.70;99.90;;;;;;5056647;28;19920;-77
2021/03/24 03:03:56;;;;;;;13.10;6.53;;;0.70;99.90;;;;;;5055213;28;20000;-76
2021/03/24 03:06:25;;;;;;;16.58;7.68;;;0.60;99.90;;;;;;5056349;28;20028;-77
2021/03/24 03:08:56;;;;;;;15.50;7.50;;;0.50;99.90;;;;;;5055245;28;20021;-77
2021/03/24 03:11:31;;;;;;;12.93;6.60;;;0.50;99.90;;;;;;5056674;28;20092;-76
2021/03/24 03:14:11;;;;;;;18.42;6.50;;;0.50;99.90;;;;;;5054712;28;20017;-76
2021/03/24 03:17:03;;;;;;;14.63;6.60;;;0.50;99.90;;;;;;5057588;28;20024;-77
2021/03/24 03:19:31;;;;;;;14.00;7.15;;;0.50;99.90;;;;;;5056502;28;20028;-76
2021/03/24 03:22:03;;;;;;;;;;;0.40;99.90;;;;;;5054855;28;20025;-78
2021/03/24 03:24:40;;;;;;;;;;;0.40;99.90;;;;;;5055708;28;20295;-76
2021/03/24 03:27:08;;;;;;;;;;;0.40;99.90;;;;;;5056103;28;19905;-76
2021/03/24 03:29:34;;;;;;;;;;;0.50;99.90;;;;;;5056115;28;19929;-76
2021/03/24 03:32:01;;;;;;;;;;;0.40;99.90;;;;;;5054870;28;19917;-76
2021/03/24 03:34:27;;;;;;;;;;;0.40;99.90;;;;;;5056231;28;19908;-77
2021/03/24 03:36:54;;;;;;;;;;;0.40;99.90;;;;;;5054701;28;20323;-77
2021/03/24 03:39:21;;;;;;;;;;;0.40;99.90;;;;;;5056628;28;20360;-76
2021/03/24 03:41:47;;;;;;;;;;;0.30;99.90;;;;;;5055173;28;19912;-77
2021/03/24 03:44:13;;;;;;;;;;;0.30;99.90;;;;;;5056979;28;19912;-76
2021/03/24 03:46:45;;;;;;;;;;;0.30;99.90;;;;;;5055749;28;19904;-78
2021/03/24 03:49:11;;;;;;;;;;;0.30;99.90;;;;;;5057060;28;19905;-77
2021/03/24 03:51:56;;;;;;;;;;;0.30;99.90;;;;;;5055702;28;20372;-77
2021/03/24 03:54:27;;;;;;;;;;;0.40;99.90;;;;;;5056720;28;20363;-77
2021/03/24 03:57:15;;;;;;;;;;;0.30;99.90;;;;;;5056610;28;19905;-78
2021/03/24 03:59:44;;;;;;;;;;;0.40;99.90;;;;;;5052840;28;20394;-76
2021/03/24 04:02:12;;;;;;;;;;;0.40;99.90;;;;;;5057697;28;20431;-78
2021/03/24 04:04:50;;;;;;;;;;;0.30;99.90;;;;;;5055777;28;19940;-76
2021/03/24 04:07:19;;;;;;;;;;;0.30;99.90;;;;;;5053679;28;20474;-77
2021/03/24 04:09:45;;;;;;;;;;;0.40;99.90;;;;;;5054446;28;20364;-76
2021/03/24 04:12:13;;;;;;;;;;;0.40;99.90;;;;;;5054055;28;20334;-76
2021/03/24 04:14:40;;;;;;;;;;;0.30;99.90;;;;;;5054205;28;20406;-77
2021/03/24 04:17:07;;;;;;;;;;;0.30;99.90;;;;;;5055329;28;19988;-76
2021/03/24 04:19:35;;;;;;;;;;;0.20;99.90;;;;;;5053205;28;20319;-76
2021/03/24 04:22:01;;;;;;;;;;;0.20;99.90;;;;;;5054190;28;19939;-76
2021/03/24 04:24:28;;;;;;;;;;;0.20;99.90;;;;;;5052621;28;19905;-76
2021/03/24 04:26:57;;;;;;;;;;;0.20;99.90;;;;;;5053232;28;19957;-78
2021/03/24 04:29:26;;;;;;;;;;;0.20;99.90;;;;;;5054079;28;19940;-76
2021/03/24 04:31:53;;;;;;;;;;;0.20;99.90;;;;;;5053418;28;19919;-77
2021/03/24 04:34:19;;;;;;;;;;;0.20;99.90;;;;;;5054613;28;20402;-78
2021/03/24 04:36:48;;;;;;;;;;;0.20;99.90;;;;;;5052695;28;20007;-77
2021/03/24 04:39:16;;;;;;;;;;;0.20;99.90;;;;;;5054284;28;19904;-77
2021/03/24 04:41:44;;;;;;;;;;;0.20;99.90;;;;;;5054752;28;19920;-77
2021/03/24 04:44:18;;;;;;;;;;;0.20;99.90;;;;;;5054368;28;20239;-76
2021/03/24 04:46:45;;;;;;;;;;;0.10;99.90;;;;;;5053884;28;20390;-77
2021/03/24 04:49:19;;;;;;;;;;;0.10;99.90;;;;;;5055114;28;19911;-77
2021/03/24 04:51:46;;;;;;;;;;;0.10;99.90;;;;;;5054823;28;20355;-79
2021/03/24 04:54:14;;;;;;;;;;;0.10;99.90;;;;;;5053364;28;19908;-76
2021/03/24 04:56:41;;;;;;;;;;;0.10;99.90;;;;;;5053527;28;19909;-76
2021/03/24 04:59:08;;;;;;;;;;;0.10;99.90;;;;;;5054245;28;19976;-76
2021/03/24 05:01:40;;;;;;;;;;;0.20;99.90;;;;;;5053350;28;19909;-76
2021/03/24 05:04:08;;;;;;;;;;;0.20;99.90;;;;;;5052892;28;19904;-77
2021/03/24 05:06:34;;;;;;;;;;;0.10;99.90;;;;;;5054382;28;19905;-77
2021/03/24 05:08:59;;;;;;;;;;;0.10;99.90;;;;;;5052348;28;19904;-76
2021/03/24 05:11:25;;;;;;;;;;;0.20;99.90;;;;;;5054213;28;19912;-76
2021/03/24 05:13:54;;;;;;;;;;;0.20;99.90;;;;;;5053299;28;20408;-77
2021/03/24 05:16:19;;;;;;;;;;;0.20;99.90;;;;;;5054558;28;19955;-77
2021/03/24 05:18:51;;;;;;;;;;;0.40;99.90;;;;;;5054879;28;19905;-78
2021/03/24 05:21:21;;;;;;;;;;;0.40;99.90;;;;;;5054292;28;19975;-76
2021/03/24 05:23:47;;;;;;;;;;;0.40;99.90;;;;;;5054022;28;19904;-76
2021/03/24 05:26:27;;;;;;;;;;;0.40;99.90;;;;;;5055210;28;20007;-76
2021/03/24 05:28:53;;;;;;;;;;;0.40;99.90;;;;;;5052385;28;20407;-77
2021/03/24 05:31:21;;;;;;;;;;;0.40;99.90;;;;;;5053856;28;20295;-80
2021/03/24 05:33:50;;;;;;;;;;;0.40;99.90;;;;;;5052812;28;19916;-77
2021/03/24 05:36:26;;;;;;;;;;;0.50;99.90;;;;;;5054578;28;19928;-77
2021/03/24 05:38:53;;;;;;;;;;;0.50;99.90;;;;;;5053018;28;19958;-78
2021/03/24 05:41:40;;;;;;;;;;;0.60;99.90;;;;;;5053543;28;19909;-77
2021/03/24 05:44:24;;;;;;;;;;;0.70;99.90;;;;;;5052416;28;19905;-77
2021/03/24 05:47:00;;;;;;;;;;;0.80;99.90;;;;;;5053282;28;19908;-77
2021/03/24 05:49:38;;;;;;;;;;;0.80;99.90;;;;;;5051726;28;19911;-75
2021/03/24 05:52:03;;;;;;;;;;;0.90;99.90;;;;;;5056061;28;19966;-76
2021/03/24 05:54:34;;;;;;;;;;;0.90;99.90;;;;;;5054003;28;19909;-76
2021/03/24 05:57:15;;;;;;;;;;;1.00;99.90;;;;;;5054257;28;20398;-77
2021/03/24 05:59:40;;;;;;;;;;;1.10;99.90;;;;;;5052538;28;19905;-76
2021/03/24 06:02:29;;;;;;;;;;;1.20;99.90;;;;;;5051579;28;20440;-76
2021/03/24 06:04:57;;;;;;;;;;;1.30;99.90;;;;;;5042798;28;19905;-76
2021/03/24 06:07:34;;;;;;;;;;;1.60;99.90;;;;;;5051758;28;19905;-76
2021/03/24 06:10:00;;;;;;;;;;;1.80;99.90;;;;;;5051161;28;19932;-76
2021/03/24 06:12:31;;;;;;;21.05;9.80;;;1.70;99.90;;;;;;5049872;28;20280;-76
2021/03/24 06:15:10;;;;;;;19.65;9.70;;;1.80;99.90;;;;;;5049103;28;20028;-77
2021/03/24 06:17:40;;;;;;;20.98;9.55;;;1.90;99.90;;;;;;5050976;28;20528;-77
2021/03/24 06:20:38;;;;;;;21.80;9.43;;;2.00;99.90;;;;;;5051002;28;20078;-77
2021/03/24 06:23:15;;;;;;;18.63;8.05;;;2.20;99.90;;;;;;5052883;28;20021;-76
2021/03/24 06:25:46;;;;;;;24.77;10.63;;;2.30;99.90;;;;;;5054076;28;20021;-78
2021/03/24 06:28:15;;;;;;;20.75;8.80;;;2.40;99.90;;;;;;5056808;28;20013;-77
2021/03/24 06:30:46;;;;;;;21.95;10.57;;;2.50;99.90;;;;;;5056997;28;20025;-79
2021/03/24 06:33:29;;;;;;;18.13;8.25;;;2.60;99.90;;;;;;5056274;28;20037;-79
2021/03/24 06:36:26;;;;;;;20.30;9.98;;;2.80;99.90;;;;;;5054705;28;20025;-77
2021/03/24 06:39:04;;;;;;;18.80;9.45;;;2.90;99.90;;;;;;5055983;28;20025;-79
2021/03/24 06:42:03;;;;;;;23.77;10.10;;;3.10;99.90;;;;;;5054959;28;20028;-79
2021/03/24 06:45:04;;;;;;;23.08;9.25;;;3.10;99.90;;;;;;5055923;28;20079;-76
2021/03/24 06:47:49;;;;;;;19.33;9.20;;;3.30;99.90;;;;;;5054312;28;20025;-78
2021/03/24 06:50:36;;;;;;;25.25;9.75;;;3.40;99.90;;;;;;5056334;28;20032;-77
2021/03/24 06:53:26;;;;;;;24.45;8.75;;;3.50;99.90;;;;;;5054964;28;20082;-77
2021/03/24 06:56:23;;;;;;;17.33;8.75;;;3.50;99.90;;;;;;5055319;28;20392;-77
2021/03/24 06:59:29;;;;;;;22.38;8.90;;;3.60;99.90;;;;;;5054130;28;20032;-76
2021/03/24 07:02:10;;;;;;;21.05;9.00;;;3.70;99.90;;;;;;5055143;28;20203;-76
2021/03/24 07:05:09;;;;;;;18.75;8.98;;;3.70;99.90;;;;;;5061173;28;20052;-77
2021/03/24 07:08:00;;;;;;;21.00;9.10;;;4.20;99.90;;;;;;5070699;28;20111;-78
2021/03/24 07:10:35;;;;;;;;;;;7.30;99.90;;;;;;5068599;28;20037;-78
2021/03/24 07:13:19;;;;;;;;;;;10.80;99.90;;;;;;5073737;28;20379;-78
2021/03/24 07:15:54;;;;;;;18.58;10.05;;;13.20;99.90;;;;;;5076392;28;20374;-78
2021/03/24 07:19:01;;;;;;;17.52;9.18;;;13.80;99.90;;;;;;5076789;28;20351;-78
2021/03/24 07:21:29;;;;;;;13.98;7.35;;;15.00;96.40;;;;;;5058116;28;20515;-79
2021/03/24 07:24:19;;;;;;;14.82;8.77;;;15.50;86.80;;;;;;5074707;28;20418;-78
2021/03/24 07:26:44;;;;;;;16.20;9.35;;;16.30;82.90;;;;;;5074523;28;20020;-77
2021/03/24 07:29:22;;;;;;;14.10;7.30;;;16.80;76.80;;;;;;5073707;28;20032;-77
2021/03/24 07:31:57;;;;;;;13.52;8.02;;;16.50;73.70;;;;;;5073895;28;20111;-78
2021/03/24 07:34:47;;;;;;;13.95;8.35;;;15.50;81.40;;;;;;5071744;28;20107;-77
2021/03/24 07:37:35;;;;;;;10.98;7.47;;;15.60;79.10;;;;;;5072365;28;20110;-77
2021/03/24 07:40:17;;;;;;;12.82;7.18;;;15.90;82.40;;;;;;5073746;28;20639;-78
2021/03/24 07:42:55;;;;;;;13.43;7.68;;;17.50;70.60;;;;;;5074009;28;20073;-78
2021/03/24 07:46:01;;;;;;;14.10;8.38;;;18.70;65.60;;;;;;5074443;28;20056;-76
2021/03/24 07:48:52;;;;;;;12.43;7.90;;;19.00;62.90;;;;;;5073336;28;20231;-77
2021/03/24 07:51:58;;;;;;;12.35;7.70;;;19.30;59.10;;;;;;5074100;28;20487;-78
2021/03/24 07:54:48;;;;;;;10.98;6.53;;;19.10;59.80;;;;;;5072788;28;20032;-77
2021/03/24 07:57:26;;;;;;;12.52;6.45;;;19.30;58.70;;;;;;5074013;28;20395;-78
2021/03/24 08:00:00;;;;;;;8.43;6.07;;;19.20;57.60;;;;;;5073832;28;20051;-78
2021/03/24 08:02:53;;;;;;;9.95;6.47;;;20.00;57.90;;;;;;5073315;28;20020;-80
2021/03/24 08:05:56;;;;;;;11.85;7.60;;;20.50;55.90;;;;;;5071902;28;20028;-77
2021/03/24 08:08:50;;;;;;;9.90;6.35;;;20.20;55.40;;;;;;5072931;28;20581;-75
2021/03/24 08:11:38;;;;;;;9.82;6.13;;;20.00;54.70;;;;;;5073595;28;20032;-75
2021/03/24 08:14:12;;;;;;;9.43;6.45;;;20.50;54.10;;;;;;5071957;28;20144;-75
2021/03/24 08:17:20;;;;;;;13.13;6.95;;;21.20;52.50;;;;;;5073376;28;20048;-75
2021/03/24 08:19:56;;;;;;;9.30;6.00;;;21.60;52.30;;;;;;5060784;28;20036;-75
2021/03/24 08:22:43;;;;;;;8.65;5.75;;;20.80;52.40;;;;;;5073157;28;20044;-77
2021/03/24 08:25:11;;;;;;;;;;;21.60;51.50;;;;;;5072026;28;20032;-77
2021/03/24 08:27:56;;;;;;;;;;;21.60;52.40;;;;;;5073641;28;19919;-76
2021/03/24 08:30:30;;;;;;;10.63;6.05;;;21.60;51.70;;;;;;5072840;28;19999;-76
2021/03/24 08:33:15;;;;;;;;;;;21.80;51.90;;;;;;5072018;28;20042;-77
2021/03/24 08:36:13;;;;;;;8.60;6.10;;;22.20;49.50;;;;;;5071667;28;20329;-78
2021/03/24 08:38:51;;;;;;;9.30;5.60;;;21.40;49.60;;;;;;5072563;28;20028;-78
2021/03/24 08:41:27;;;;;;;;;;;21.50;52.20;;;;;;5075394;28;19912;-80
2021/03/24 08:43:55;;;;;;;;;;;21.00;52.00;;;;;;5075230;28;19910;-78
2021/03/24 08:46:42;;;;;;;12.15;7.38;;;22.20;49.60;;;;;;5072792;28;20374;-80
2021/03/24 08:49:09;;;;;;;;;;;22.80;49.90;;;;;;5071921;28;20028;-78
2021/03/24 08:51:41;;;;;;;10.95;6.65;;;21.80;50.10;;;;;;5073812;28;19911;-79
2021/03/24 08:54:44;;;;;;;11.07;7.13;;;22.80;49.60;;;;;;5072500;28;20119;-76
2021/03/24 08:57:35;;;;;;;12.50;6.75;;;23.20;49.40;;;;;;5072325;28;20298;-76
2021/03/24 09:00:03;;;;;;;;;;;21.80;49.80;;;;;;5072433;28;20024;-78
2021/03/24 09:02:53;;;;;;;10.90;6.80;;;22.50;48.70;;;;;;5072381;28;19944;-77
2021/03/24 09:05:34;;;;;;;10.73;7.22;;;23.40;48.60;;;;;;5072789;28;20438;-76
2021/03/24 09:08:25;;;;;;;10.00;6.68;;;24.00;47.30;;;;;;5072880;28;20458;-76
2021/03/24 09:11:28;;;;;;;10.75;6.90;;;24.40;46.20;;;;;;5073040;28;20036;-74
2021/03/24 09:14:08;;;;;;;10.77;7.40;;;24.10;47.60;;;;;;5071303;28;20491;-78
2021/03/24 09:17:23;;;;;;;11.55;7.35;;;24.70;46.00;;;;;;5072389;28;20099;-77
2021/03/24 09:20:07;;;;;;;;;;;24.30;45.70;;;;;;5074746;28;20438;-77
2021/03/24 09:22:51;;;;;;;10.00;7.10;;;23.10;47.90;;;;;;5075659;28;19934;-77
2021/03/24 09:25:17;;;;;;;;;;;24.40;48.00;;;;;;5073066;28;20033;-75
2021/03/24 09:27:52;;;;;;;;;;;24.20;45.40;;;;;;5073554;28;19915;-75
2021/03/24 09:30:55;;;;;;;8.80;6.47;;;25.30;44.10;;;;;;5074849;28;19915;-79
2021/03/24 09:33:48;;;;;;;9.43;6.32;;;24.00;45.10;;;;;;5073939;28;20527;-76
2021/03/24 09:36:51;;;;;;;10.48;7.63;;;23.60;47.30;;;;;;5074237;28;20027;-76
2021/03/24 09:39:26;;;;;;;;;;;24.90;46.40;;;;;;5075666;28;20080;-79
2021/03/24 09:41:55;;;;;;;;;;;23.90;46.40;;;;;;5077471;28;19908;-76
2021/03/24 09:44:33;;;;;;;9.50;6.25;;;23.70;47.60;;;;;;5077004;28;19908;-79
2021/03/24 09:47:00;;;;;;;9.52;6.60;;;24.10;48.10;;;;;;5074838;28;20024;-76
2021/03/24 09:49:45;;;;;;;11.82;6.60;;;24.60;45.20;;;;;;5074138;28;20043;-78
2021/03/24 09:52:46;;;;;;;12.63;7.82;;;25.30;44.10;;;;;;5074434;28;20029;-76
2021/03/24 09:55:11;;;;;;;10.20;6.43;;;24.80;44.10;;;;;;5072702;28;20044;-78
2021/03/24 09:58:02;;;;;;;9.57;6.03;;;24.40;44.30;;;;;;5076071;28;20047;-79
2021/03/24 10:00:30;;;;;;;11.25;6.20;;;23.50;45.00;;;;;;5073001;28;20446;-82
2021/03/24 10:03:29;;;;;;;9.93;5.90;;;23.70;47.50;;;;;;5071121;28;20028;-80
2021/03/24 10:05:59;;;;;;;8.43;6.18;;;23.90;45.40;;;;;;5072389;28;20017;-77
2021/03/24 10:08:37;;;;;;;8.38;5.35;;;24.40;46.50;;;;;;5072566;28;20139;-76
2021/03/24 10:11:08;;;;;;;8.23;5.57;;;24.40;45.00;;;;;;5073519;28;20460;-78
2021/03/24 10:13:47;;;;;;;8.85;6.25;;;25.10;44.80;;;;;;5072592;28;20030;-78
2021/03/24 10:16:22;;;;;;;8.25;5.32;;;25.00;46.70;;;;;;5072862;28;20044;-75
2021/03/24 10:19:15;;;;;;;8.57;5.22;;;24.90;45.60;;;;;;5070713;28;20025;-75
2021/03/24 10:21:42;;;;;;;9.57;5.68;;;25.20;44.40;;;;;;5072736;28;20047;-77
2021/03/24 10:24:18;;;;;;;8.48;5.60;;;25.60;43.60;;;;;;5067979;28;20021;-77
2021/03/24 10:26:54;;;;;;;;;;;26.00;45.00;;;;;;5073570;28;20074;-77
2021/03/24 10:29:23;;;;;;;;;;;26.00;43.10;;;;;;5070270;28;19957;-76
2021/03/24 10:32:04;;;;;;;;;;;25.20;44.10;;;;;;5055738;28;19913;-78
2021/03/24 10:34:43;;;;;;;8.60;5.90;;;25.60;44.20;;;;;;5055148;28;20390;-78
2021/03/24 10:37:08;;;;;;;7.15;5.10;;;24.50;44.80;;;;;;5051982;28;20028;-78
2021/03/24 10:39:40;;;;;;;9.87;6.00;;;25.30;46.80;;;;;;5051300;28;20029;-77
2021/03/24 10:42:25;;;;;;;;;;;26.00;44.40;;;;;;5057162;28;20034;-77
2021/03/24 10:45:10;;;;;;;;;;;25.20;43.90;;;;;;5072595;28;19958;-75
2021/03/24 10:47:38;;;;;;;;;;;24.90;43.70;;;;;;5055300;28;19909;-78
2021/03/24 10:50:03;;;;;;;;;;;24.60;44.20;;;;;;5060736;28;19909;-79
2021/03/24 10:52:37;;;;;;;;;;;25.20;43.30;;;;;;5051301;28;19909;-79
2021/03/24 10:55:12;;;;;;;;;;;24.50;45.70;;;;;;5051434;28;19944;-77
2021/03/24 10:57:47;;;;;;;;;;;24.90;44.40;;;;;;5050901;28;19934;-75
2021/03/24 11:00:15;;;;;;;;;;;24.80;45.20;;;;;;5050597;28;20291;-78
2021/03/24 11:02:40;;;;;;;;;;;25.80;42.40;;;;;;5051593;28;19915;-77
2021/03/24 11:05:10;;;;;;;;;;;24.50;42.90;;;;;;5051080;28;19904;-77
2021/03/24 11:07:42;;;;;;;;;;;24.90;43.50;;;;;;5051374;28;19904;-77
2021/03/24 11:10:11;;;;;;;;;;;24.20;44.50;;;;;;5054262;28;19912;-78
2021/03/24 11:12:41;;;;;;;;;;;23.50;46.70;;;;;;5054701;28;19904;-76
2021/03/24 11:15:19;;;;;;;;;;;22.90;45.50;;;;;;5055144;28;19911;-77
2021/03/24 11:17:46;;;;;;;;;;;23.90;45.80;;;;;;5055719;28;19911;-78
2021/03/24 11:20:35;;;;;;;;;;;23.30;46.20;;;;;;5056419;28;19905;-78
2021/03/24 11:23:02;;;;;;;;;;;23.40;46.00;;;;;;5056256;28;20260;-76
2021/03/24 11:25:39;;;;;;;;;;;23.90;46.70;;;;;;5055067;28;19905;-78
2021/03/24 11:28:14;;;;;;;;;;;23.50;44.60;;;;;;5056605;28;19936;-77
2021/03/24 11:30:42;;;;;;;;;;;21.50;47.90;;;;;;5057537;28;19962;-76
2021/03/24 11:33:26;;;;;;;;;;;20.20;50.70;;;;;;5057842;28;19916;-75
2021/03/24 11:35:58;;;;;;;;;;;21.00;49.50;;;;;;5054511;28;19911;-78
2021/03/24 11:38:26;;;;;;;;;;;21.70;49.70;;;;;;5055347;28;19995;-78
2021/03/24 11:40:54;;;;;;;;;;;22.50;48.40;;;;;;5055597;28;20356;-77
2021/03/24 11:43:24;;;;;;;7.95;4.90;;;23.40;48.20;;;;;;5054816;28;19955;-80
2021/03/24 11:46:04;;;;;;;8.85;5.40;;;24.20;46.10;;;;;;5055801;28;20029;-77
2021/03/24 11:48:40;;;;;;;8.02;5.65;;;23.80;46.20;;;;;;5055608;28;20036;-75
2021/03/24 11:51:30;;;;;;;6.95;5.35;;;23.40;48.60;;;;;;5055011;28;20051;-77
2021/03/24 11:54:22;;;;;;;9.32;5.93;;;23.40;46.00;;;;;;5053280;28;20492;-78
2021/03/24 11:57:06;;;;;;;;;;;23.70;47.50;;;;;;5054234;28;20025;-76
2021/03/24 11:59:31;;;;;;;;;;;23.20;46.50;;;;;;5055241;28;19908;-75
2021/03/24 12:01:57;;;;;;;;;;;22.40;45.00;;;;;;5054437;28;19909;-79
2021/03/24 12:04:31;;;;;;;;;;;22.10;47.60;;;;;;5054410;28;19905;-77
2021/03/24 12:07:08;;;;;;;;;;;22.10;48.80;;;;;;5055268;28;20434;-76
2021/03/24 12:09:36;;;;;;;;;;;22.20;47.40;;;;;;5053770;28;20329;-76
2021/03/24 12:12:06;;;;;;;;;;;21.50;47.00;;;;;;5055032;28;19951;-79
2021/03/24 12:14:32;;;;;;;;;;;20.80;50.40;;;;;;5053837;28;19927;-77
2021/03/24 12:16:59;;;;;;;;;;;21.40;52.30;;;;;;5054606;28;19912;-77
2021/03/24 12:19:31;;;;;;;;;;;21.00;52.40;;;;;;5053917;28;19927;-77
2021/03/24 12:22:00;;;;;;;;;;;20.40;51.90;;;;;;5054099;28;19908;-79
2021/03/24 12:24:29;;;;;;;;;;;20.70;53.20;;;;;;5052493;28;20003;-77
2021/03/24 12:27:06;;;;;;;;;;;20.60;50.10;;;;;;5054257;28;19909;-78
2021/03/24 12:29:31;;;;;;;;;;;20.40;52.40;;;;;;5052998;28;19958;-75
2021/03/24 12:32:00;;;;;;;;;;;19.10;52.80;;;;;;5055549;28;19916;-76
2021/03/24 12:34:27;;;;;;;;;;;19.70;53.80;;;;;;5055571;28;19999;-78
2021/03/24 12:36:54;;;;;;;;;;;20.00;57.80;;;;;;5054016;28;20071;-77
2021/03/24 12:39:29;;;;;;;;;;;20.60;53.90;;;;;;5065154;28;19916;-78
2021/03/24 12:41:54;;;;;;;;;;;20.20;55.00;;;;;;5058636;28;19913;-78
2021/03/24 12:44:27;;;;;;;;;;;19.60;53.80;;;;;;5045196;28;19921;-77
2021/03/24 12:47:01;;;;;;;;;;;19.60;54.90;;;;;;5060963;28;20006;-76
2021/03/24 12:49:28;;;;;;;;;;;19.20;55.80;;;;;;5064829;28;19905;-78
2021/03/24 12:52:01;;;;;;;;;;;18.40;58.70;;;;;;5073090;28;20360;-78
2021/03/24 12:54:26;;;;;;;;;;;17.90;58.40;;;;;;5062072;28;19915;-77
2021/03/24 12:57:06;;;;;;;;;;;16.80;68.30;;;;;;5074011;28;19909;-78
2021/03/24 12:59:50;;;;;;;;;;;16.70;65.10;;;;;;5070859;28;19930;-79
2021/03/24 13:02:26;;;;;;;;;;;16.90;67.40;;;;;;5054897;28;19915;-77
2021/03/24 13:04:55;;;;;;;;;;;17.50;69.00;;;;;;5070971;28;19911;-77
2021/03/24 13:07:20;;;;;;;;;;;18.20;69.50;;;;;;5074684;28;20303;-77
2021/03/24 13:10:12;;;;;;;;;;;18.70;59.70;;;;;;5073869;28;19908;-77
2021/03/24 13:13:03;;;;;;;;;;;19.00;59.20;;;;;;5073108;28;19967;-75
2021/03/24 13:15:32;;;;;;;;;;;19.10;59.80;;;;;;5075495;28;19909;-78
2021/03/24 13:18:04;;;;;;;;;;;18.80;57.70;;;;;;5073818;28;19905;-78
2021/03/24 13:20:39;;;;;;;;;;;18.60;57.90;;;;;;5074753;28;20356;-76
2021/03/24 13:23:11;;;;;;;;;;;18.60;60.00;;;;;;5064876;28;19908;-77
2021/03/24 13:25:42;;;;;;;;;;;18.90;60.60;;;;;;5052707;28;19905;-77
2021/03/24 13:28:08;;;;;;;;;;;18.90;56.90;;;;;;5055053;28;20039;-79
2021/03/24 13:30:47;;;;;;;;;;;18.40;56.60;;;;;;5054280;28;19970;-78
2021/03/24 13:33:18;;;;;;;;;;;18.40;65.40;;;;;;5052732;28;19920;-78
2021/03/24 13:35:47;;;;;;;;;;;18.20;57.60;;;;;;5054276;28;19982;-78
2021/03/24 13:38:21;;;;;;;;;;;18.10;58.20;;;;;;5052607;28;19904;-77
2021/03/24 13:40:47;;;;;;;;;;;18.10;59.70;;;;;;5053155;28;19909;-78
2021/03/24 13:43:17;;;;;;;;;;;18.20;62.10;;;;;;5054682;28;19905;-77
2021/03/24 13:45:42;;;;;;;;;;;17.70;62.10;;;;;;5054186;28;19905;-76
2021/03/24 13:48:14;;;;;;;;;;;16.60;65.30;;;;;;5053476;28;19911;-77
2021/03/24 13:50:44;;;;;;;;;;;16.50;67.20;;;;;;5053156;28;19999;-77
2021/03/24 13:53:30;;;;;;;;;;;16.00;74.90;;;;;;5054808;28;20180;-78
2021/03/24 13:56:03;;;;;;;;;;;15.60;76.90;;;;;;5031837;28;19909;-78
2021/03/24 13:58:31;;;;;;;;;;;15.40;87.10;;;;;;5052104;28;20113;-77
2021/03/24 14:01:05;;;;;;;;;;;15.20;86.90;;;;;;5055059;28;19908;-75
2021/03/24 14:03:40;;;;;;;;;;;15.10;81.10;;;;;;5068694;28;19931;-77
2021/03/24 14:06:11;;;;;;;;;;;14.70;79.40;;;;;;5070657;28;19905;-77
2021/03/24 14:08:40;;;;;;;;;;;14.70;80.40;;;;;;5070902;28;19904;-78
2021/03/24 14:11:17;;;;;;;;;;;14.70;84.10;;;;;;5074589;28;19912;-79
2021/03/24 14:13:42;;;;;;;;;;;14.80;81.50;;;;;;5073913;28;20382;-77
2021/03/24 14:16:14;;;;;;;;;;;14.80;84.10;;;;;;5073075;28;19904;-78
2021/03/24 14:18:39;;;;;;;;;;;14.60;85.30;;;;;;5074173;28;19904;-77
2021/03/24 14:21:36;;;;;;;;;;;14.60;90.90;;;;;;5074013;28;20021;-78
2021/03/24 14:24:04;;;;;;;;;;;14.70;89.10;;;;;;5075148;28;19991;-77